Time;durP1;ratioP1;P1;durP2;ratioP2;P2;SDS_P1;SDS_P2;PMS_P1;PMS_P2;Temp;Humidity;BMP_temperature;BMP_pressure;BME280_temperature;BME280_humidity;BME280_pressure;Samples;Min_cycle;Max_cycle;Signal;HPM_P1;HPM_P2
2021/08/05 00:00:41;;;;;;;9.60;3.28;;;23.90;99.90;;;;;;4879149;29;20049;-74
2021/08/05 00:03:07;;;;;;;11.25;3.75;;;23.80;99.90;;;;;;4879601;29;20671;-74
2021/08/05 00:05:33;;;;;;;8.70;3.08;;;23.60;99.90;;;;;;4879432;29;20036;-75
2021/08/05 00:07:58;;;;;;;4.65;3.30;;;23.50;99.90;;;;;;4878003;29;20100;-75
2021/08/05 00:10:24;;;;;;;9.35;3.22;;;23.40;99.90;;;;;;4879061;29;20057;-73
2021/08/05 00:12:50;;;;;;;6.88;3.30;;;23.30;99.90;;;;;;4879088;29;20029;-73
2021/08/05 00:15:16;;;;;;;6.05;2.95;;;23.20;99.90;;;;;;4865558;29;20086;-76
2021/08/05 00:17:41;;;;;;;9.45;3.13;;;23.10;99.90;;;;;;4877978;29;20539;-74
2021/08/05 00:20:07;;;;;;;10.45;3.42;;;23.00;99.90;;;;;;4879039;29;20033;-74
2021/08/05 00:22:33;;;;;;;8.48;3.28;;;22.90;99.90;;;;;;4879762;29;20043;-75
2021/08/05 00:24:59;;;;;;;4.78;3.05;;;22.80;99.90;;;;;;4879881;29;20051;-74
2021/08/05 00:27:24;;;;;;;8.77;3.33;;;22.60;99.90;;;;;;4879705;29;20032;-74
2021/08/05 00:29:50;;;;;;;6.65;2.65;;;22.40;99.90;;;;;;4879447;29;20048;-74
2021/08/05 00:32:16;;;;;;;8.02;3.30;;;22.30;99.90;;;;;;4879259;29;20135;-74
2021/08/05 00:34:42;;;;;;;5.03;3.03;;;22.20;99.90;;;;;;4878872;29;20040;-75
2021/08/05 00:37:07;;;;;;;9.52;3.80;;;22.00;99.90;;;;;;4879194;29;20033;-74
2021/08/05 00:39:33;;;;;;;5.30;3.40;;;22.00;99.90;;;;;;4877110;29;20085;-75
2021/08/05 00:41:58;;;;;;;5.75;3.17;;;21.90;99.90;;;;;;4879446;29;20543;-75
2021/08/05 00:44:24;;;;;;;6.43;3.38;;;21.90;99.90;;;;;;4878326;29;20029;-73
2021/08/05 00:46:50;;;;;;;5.95;3.53;;;21.90;99.90;;;;;;4878250;29;20116;-74
2021/08/05 00:49:15;;;;;;;6.40;3.70;;;21.80;99.90;;;;;;4878754;29;20744;-74
2021/08/05 00:51:43;;;;;;;5.30;3.17;;;21.80;99.90;;;;;;4877062;29;20052;-75
2021/08/05 00:54:09;;;;;;;10.75;3.40;;;21.70;99.90;;;;;;4878876;29;20044;-74
2021/08/05 00:56:35;;;;;;;10.98;3.85;;;21.50;99.90;;;;;;4877993;29;20037;-74
2021/08/05 00:59:01;;;;;;;8.68;3.00;;;21.30;99.90;;;;;;4878132;29;20406;-74
2021/08/05 01:02:10;;;;;;;7.20;3.30;;;21.20;99.90;;;;;;4878363;29;20041;-74
2021/08/05 01:04:36;;;;;;;4.72;2.80;;;21.10;99.90;;;;;;4821326;29;20504;-74
2021/08/05 01:07:43;;;;;;;4.43;2.90;;;21.10;99.90;;;;;;4869624;29;20048;-75
2021/08/05 01:10:27;;;;;;;5.47;2.95;;;21.20;99.90;;;;;;4821086;29;20149;-74
2021/08/05 01:13:17;;;;;;;6.03;3.45;;;21.30;99.90;;;;;;4813468;29;20129;-74
2021/08/05 01:15:44;;;;;;;7.20;2.83;;;21.30;99.90;;;;;;4865230;29;20160;-74
2021/08/05 01:18:19;;;;;;;10.68;3.40;;;21.30;99.90;;;;;;4878477;29;20037;-73
2021/08/05 01:20:45;;;;;;;8.52;3.30;;;21.30;99.90;;;;;;4878012;29;20093;-75
2021/08/05 01:23:32;;;;;;;5.47;2.95;;;21.30;99.90;;;;;;4878183;29;20029;-73
2021/08/05 01:26:36;;;;;;;6.90;3.47;;;21.10;99.90;;;;;;4877995;29;20049;-74
2021/08/05 01:29:03;;;;;;;4.43;2.83;;;21.00;99.90;;;;;;4878070;29;20040;-74
2021/08/05 01:31:30;;;;;;;6.65;3.45;;;21.00;99.90;;;;;;4878258;29;20052;-74
2021/08/05 01:33:56;;;;;;;8.15;3.30;;;21.00;99.90;;;;;;4877039;29;20116;-74
2021/08/05 01:36:26;;;;;;;6.60;3.17;;;21.10;99.90;;;;;;4878022;29;20040;-73
2021/08/05 01:38:54;;;;;;;10.95;3.55;;;21.20;99.90;;;;;;4877943;29;20044;-74
2021/08/05 01:41:22;;;;;;;8.63;2.95;;;21.20;99.90;;;;;;4886783;29;20051;-73
2021/08/05 01:43:49;;;;;;;8.07;3.58;;;21.10;99.90;;;;;;4878229;29;20037;-74
2021/08/05 01:46:21;;;;;;;5.43;3.00;;;21.00;99.90;;;;;;4877733;29;20133;-74
2021/08/05 01:48:49;;;;;;;7.22;3.40;;;21.00;99.90;;;;;;4878424;29;20455;-74
2021/08/05 01:51:15;;;;;;;8.98;4.20;;;20.90;99.90;;;;;;4877971;29;20045;-73
2021/08/05 01:53:42;;;;;;;7.00;2.83;;;20.80;99.90;;;;;;4877899;29;20056;-74
2021/08/05 01:56:08;;;;;;;6.78;3.22;;;20.80;99.90;;;;;;4877736;29;20378;-74
2021/08/05 01:58:33;;;;;;;7.28;3.13;;;20.80;99.90;;;;;;4876126;29;20100;-73
2021/08/05 02:00:59;;;;;;;4.97;2.95;;;20.80;99.90;;;;;;4877607;29;20045;-74
2021/08/05 02:03:25;;;;;;;12.10;4.18;;;20.80;99.90;;;;;;4877403;29;20044;-73
2021/08/05 02:06:11;;;;;;;8.02;3.13;;;20.70;99.90;;;;;;4878002;29;20116;-73
2021/08/05 02:09:01;;;;;;;10.18;3.00;;;20.60;99.90;;;;;;4877924;29;20033;-75
2021/08/05 02:11:30;;;;;;;7.35;3.17;;;20.60;99.90;;;;;;4879081;29;20033;-75
2021/08/05 02:13:59;;;;;;;10.55;2.92;;;20.60;99.90;;;;;;4878121;29;20029;-75
2021/08/05 02:16:26;;;;;;;6.65;2.78;;;20.60;99.90;;;;;;4877526;29;20494;-75
2021/08/05 02:18:53;;;;;;;6.38;2.60;;;20.60;99.90;;;;;;4879040;29;20041;-74
2021/08/05 02:21:24;;;;;;;8.30;3.10;;;20.70;99.90;;;;;;4881266;29;20053;-75
2021/08/05 02:23:57;;;;;;;6.85;2.65;;;20.90;99.90;;;;;;4880879;29;20115;-76
2021/08/05 02:26:24;;;;;;;3.97;2.10;;;21.10;99.90;;;;;;4880921;29;20192;-75
2021/08/05 02:28:50;;;;;;;7.60;2.60;;;21.10;99.90;;;;;;4881091;29;20041;-76
2021/08/05 02:31:17;;;;;;;8.73;2.92;;;21.20;99.90;;;;;;4889414;29;20405;-76
2021/08/05 02:33:45;;;;;;;10.90;2.90;;;21.20;99.90;;;;;;4880396;29;20120;-75
2021/08/05 02:36:11;;;;;;;6.97;2.75;;;21.20;99.90;;;;;;4881010;29;20169;-75
2021/08/05 02:38:37;;;;;;;11.05;2.85;;;21.10;99.90;;;;;;4881111;29;20029;-75
2021/08/05 02:41:05;;;;;;;7.53;2.80;;;21.10;99.90;;;;;;4880705;29;20041;-75
2021/08/05 02:43:34;;;;;;;7.25;3.30;;;21.00;99.90;;;;;;4880126;29;20032;-75
2021/08/05 02:46:01;;;;;;;8.05;3.08;;;21.00;99.90;;;;;;4880428;29;20117;-75
2021/08/05 02:48:28;;;;;;;10.05;4.00;;;20.90;99.90;;;;;;4880331;29;20032;-75
2021/08/05 02:50:55;;;;;;;7.93;2.55;;;20.90;99.90;;;;;;4880801;29;20055;-75
2021/08/05 02:53:21;;;;;;;8.23;3.22;;;20.90;99.90;;;;;;4880828;29;20402;-76
2021/08/05 02:55:47;;;;;;;11.88;3.20;;;20.80;99.90;;;;;;4880866;29;20394;-75
2021/08/05 02:58:14;;;;;;;7.63;2.88;;;20.80;99.90;;;;;;4879152;29;20029;-75
2021/08/05 03:00:40;;;;;;;10.25;3.40;;;20.70;99.90;;;;;;4881029;29;20033;-75
2021/08/05 03:03:06;;;;;;;9.77;2.80;;;20.70;99.90;;;;;;4880403;29;20077;-75
2021/08/05 03:05:32;;;;;;;8.48;3.38;;;20.70;99.90;;;;;;4880696;29;20092;-75
2021/08/05 03:07:58;;;;;;;4.63;2.70;;;20.70;99.90;;;;;;4880500;29;20440;-74
2021/08/05 03:10:23;;;;;;;7.18;2.60;;;20.70;99.90;;;;;;4880450;29;20052;-74
2021/08/05 03:12:49;;;;;;;6.03;3.00;;;20.80;99.90;;;;;;4880221;29;20040;-75
2021/08/05 03:15:15;;;;;;;5.32;2.65;;;20.80;99.90;;;;;;4880174;29;20520;-74
2021/08/05 03:17:40;;;;;;;9.63;2.78;;;20.90;99.90;;;;;;4880431;29;20037;-75
2021/08/05 03:20:07;;;;;;;3.40;2.00;;;20.90;99.90;;;;;;4882204;29;20074;-75
2021/08/05 03:22:33;;;;;;;7.25;2.75;;;21.00;99.90;;;;;;4880755;29;20132;-75
2021/08/05 03:24:59;;;;;;;9.43;2.67;;;21.00;99.90;;;;;;4880386;29;20112;-75
2021/08/05 03:27:25;;;;;;;3.53;1.95;;;21.00;99.90;;;;;;4879705;29;20088;-75
2021/08/05 03:29:50;;;;;;;7.90;2.42;;;21.10;99.90;;;;;;4879374;29;20048;-75
2021/08/05 03:32:16;;;;;;;6.75;2.67;;;21.20;99.90;;;;;;4879960;29;20108;-75
2021/08/05 03:34:42;;;;;;;7.60;2.30;;;21.20;99.90;;;;;;4879877;29;20037;-75
2021/08/05 03:37:07;;;;;;;6.20;2.20;;;21.30;99.90;;;;;;4880265;29;20033;-75
2021/08/05 03:39:33;;;;;;;4.03;2.20;;;21.40;99.90;;;;;;4879973;29;20044;-74
2021/08/05 03:41:59;;;;;;;4.68;2.58;;;21.30;99.90;;;;;;4879698;29;20045;-75
2021/08/05 03:44:25;;;;;;;5.10;2.67;;;21.20;99.90;;;;;;4879959;29;20025;-75
2021/08/05 03:46:50;;;;;;;3.95;2.47;;;21.20;99.90;;;;;;4897804;29;20413;-75
2021/08/05 03:49:16;;;;;;;7.70;2.80;;;21.20;99.90;;;;;;4898656;29;20466;-75
2021/08/05 03:51:42;;;;;;;10.32;2.60;;;21.20;99.90;;;;;;4909771;29;20408;-75
2021/08/05 03:54:08;;;;;;;7.75;3.28;;;21.20;99.90;;;;;;4898099;29;20056;-75
2021/08/05 03:56:34;;;;;;;8.10;3.17;;;21.20;99.90;;;;;;4898318;29;20047;-74
2021/08/05 03:59:01;;;;;;;7.80;3.20;;;21.20;99.90;;;;;;4898259;29;20473;-75
2021/08/05 04:01:26;;;;;;;4.60;2.78;;;21.10;99.90;;;;;;4881615;29;20045;-75
2021/08/05 04:03:52;;;;;;;7.15;2.58;;;21.20;99.90;;;;;;4898125;29;20035;-75
2021/08/05 04:06:18;;;;;;;4.03;2.65;;;21.10;99.90;;;;;;4898182;29;20128;-74
2021/08/05 04:08:43;;;;;;;10.00;2.95;;;21.10;99.90;;;;;;4881488;29;20035;-75
2021/08/05 04:11:09;;;;;;;5.65;2.75;;;21.00;99.90;;;;;;4898192;29;20474;-73
2021/08/05 04:13:35;;;;;;;7.85;3.17;;;21.10;99.90;;;;;;4897735;29;20024;-74
2021/08/05 04:16:01;;;;;;;7.47;3.42;;;21.00;99.90;;;;;;4897825;29;20037;-74
2021/08/05 04:18:27;;;;;;;15.30;4.85;;;21.00;99.90;;;;;;4897596;29;20060;-74
2021/08/05 04:20:52;;;;;;;10.85;3.65;;;21.00;99.90;;;;;;4900458;29;20037;-74
2021/08/05 04:23:18;;;;;;;12.30;3.33;;;21.00;99.90;;;;;;4897745;29;20056;-75
2021/08/05 04:25:45;;;;;;;7.85;3.00;;;21.00;99.90;;;;;;4897785;29;20493;-75
2021/08/05 04:28:11;;;;;;;11.80;3.33;;;21.00;99.90;;;;;;4899868;29;20028;-75
2021/08/05 04:30:36;;;;;;;13.30;4.18;;;21.10;99.90;;;;;;4912450;29;20043;-75
2021/08/05 04:33:02;;;;;;;8.05;3.78;;;21.10;99.90;;;;;;4904912;29;20415;-75
2021/08/05 04:35:28;;;;;;;5.60;2.85;;;21.10;99.90;;;;;;4910037;29;20029;-75
2021/08/05 04:37:59;;;;;;;9.88;3.00;;;21.10;99.90;;;;;;4896974;29;20084;-75
2021/08/05 04:40:27;;;;;;;10.18;3.05;;;21.10;99.90;;;;;;4906177;29;20521;-74
2021/08/05 04:42:53;;;;;;;15.13;3.97;;;21.00;99.90;;;;;;4900780;29;20082;-76
2021/08/05 04:45:18;;;;;;;8.20;3.50;;;21.00;99.90;;;;;;4898218;29;20064;-76
2021/08/05 04:47:50;;;;;;;6.68;3.00;;;21.10;99.90;;;;;;4897331;29;20520;-76
2021/08/05 04:50:17;;;;;;;17.17;4.30;;;21.10;99.90;;;;;;4897271;29;20039;-77
2021/08/05 04:52:43;;;;;;;14.77;3.97;;;21.10;99.90;;;;;;4897433;29;20028;-76
2021/08/05 04:55:09;;;;;;;8.38;3.63;;;21.10;99.90;;;;;;4897441;29;20041;-77
2021/08/05 04:57:48;;;;;;;12.77;4.03;;;21.10;99.90;;;;;;4897023;29;20040;-75
2021/08/05 05:00:19;;;;;;;14.75;4.03;;;21.20;99.90;;;;;;4896795;29;20497;-76
2021/08/05 05:02:45;;;;;;;16.17;3.92;;;21.20;99.90;;;;;;4896798;29;20482;-75
2021/08/05 05:05:10;;;;;;;12.57;4.38;;;21.30;99.90;;;;;;4896803;29;20020;-73
2021/08/05 05:07:36;;;;;;;12.63;3.55;;;21.30;99.90;;;;;;4899840;29;20036;-74
2021/08/05 05:10:03;;;;;;;19.38;3.72;;;21.40;99.90;;;;;;4899672;29;20033;-76
2021/08/05 05:12:28;;;;;;;15.57;4.70;;;21.40;99.90;;;;;;4897130;29;20108;-73
2021/08/05 05:14:54;;;;;;;10.50;3.60;;;21.50;99.90;;;;;;4898756;29;20516;-74
2021/08/05 05:17:19;;;;;;;19.85;3.90;;;21.50;99.90;;;;;;4896923;29;20032;-74
2021/08/05 05:19:45;;;;;;;12.27;3.95;;;21.70;99.90;;;;;;4897251;29;20035;-74
2021/08/05 05:22:11;;;;;;;10.45;3.80;;;21.80;99.90;;;;;;4896882;29;20077;-74
2021/08/05 05:24:36;;;;;;;14.20;3.95;;;22.80;99.90;;;;;;4896914;29;20111;-75
2021/08/05 05:27:03;;;;;;;11.77;3.78;;;23.90;99.90;;;;;;4897174;29;20041;-75
2021/08/05 05:29:28;;;;;;;17.75;3.67;;;24.10;99.90;;;;;;4896944;29;20036;-74
2021/08/05 05:31:54;;;;;;;14.90;4.82;;;24.00;99.90;;;;;;4897070;29;20040;-74
2021/08/05 05:34:20;;;;;;;13.93;5.15;;;23.60;99.90;;;;;;4897234;29;20024;-80
2021/08/05 05:36:46;;;;;;;16.17;4.70;;;23.20;99.90;;;;;;4899726;29;20043;-83
2021/08/05 05:39:12;;;;;;;19.58;4.80;;;22.80;99.90;;;;;;4896716;29;20028;-77
2021/08/05 05:41:37;;;;;;;15.88;4.07;;;22.60;99.90;;;;;;4899558;29;20512;-77
2021/08/05 05:44:03;;;;;;;10.50;4.28;;;22.50;99.90;;;;;;4896440;29;20482;-81
2021/08/05 05:46:29;;;;;;;13.20;4.25;;;22.40;99.90;;;;;;4896093;29;20523;-76
2021/08/05 05:48:55;;;;;;;19.38;5.03;;;22.30;99.90;;;;;;4895885;29;20112;-77
2021/08/05 05:51:20;;;;;;;12.77;3.85;;;22.40;99.90;;;;;;4896054;29;20064;-77
2021/08/05 05:53:46;;;;;;;13.95;4.18;;;22.90;99.90;;;;;;4897844;29;20068;-78
2021/08/05 05:56:12;;;;;;;12.85;3.80;;;23.40;99.90;;;;;;4901819;29;20472;-76
2021/08/05 05:58:38;;;;;;;11.23;4.03;;;23.30;99.90;;;;;;4896218;29;20416;-78
2021/08/05 06:01:04;;;;;;;16.42;4.45;;;23.20;99.90;;;;;;4915733;29;20552;-76
2021/08/05 06:03:30;;;;;;;17.95;4.38;;;23.10;99.90;;;;;;4914708;29;20064;-76
2021/08/05 06:05:55;;;;;;;20.40;4.15;;;23.00;99.90;;;;;;4916102;29;20068;-78
2021/08/05 06:08:21;;;;;;;16.00;4.80;;;23.10;99.90;;;;;;4917139;29;20088;-77
2021/08/05 06:10:47;;;;;;;13.15;3.95;;;23.40;99.90;;;;;;4915168;29;20262;-79
2021/08/05 06:13:12;;;;;;;10.85;3.60;;;23.90;99.90;;;;;;4917280;29;20390;-77
2021/08/05 06:15:38;;;;;;;23.52;4.13;;;24.00;99.90;;;;;;4915291;29;20033;-77
2021/08/05 06:18:04;;;;;;;12.43;5.18;;;23.80;99.90;;;;;;4917299;29;20099;-77
2021/08/05 06:20:30;;;;;;;9.65;3.63;;;23.80;99.90;;;;;;4898152;29;20040;-77
2021/08/05 06:22:56;;;;;;;11.38;4.57;;;23.50;99.90;;;;;;4916928;29;20084;-77
2021/08/05 06:25:22;;;;;;;10.20;3.40;;;23.30;99.90;;;;;;4916431;29;20389;-77
2021/08/05 06:27:48;;;;;;;15.38;4.20;;;23.00;99.90;;;;;;4913831;29;20039;-78
2021/08/05 06:30:14;;;;;;;9.85;3.60;;;22.90;99.90;;;;;;4914438;29;20089;-77
2021/08/05 06:32:40;;;;;;;17.70;4.32;;;22.70;99.90;;;;;;4913002;29;20029;-77
2021/08/05 06:35:07;;;;;;;14.82;4.57;;;22.70;99.90;;;;;;4916601;29;20028;-76
2021/08/05 06:37:33;;;;;;;38.90;5.10;;;22.60;99.90;;;;;;4914457;29;20029;-75
2021/08/05 06:39:59;;;;;;;10.70;4.40;;;22.70;99.90;;;;;;4916830;29;20039;-78
2021/08/05 06:42:25;;;;;;;15.23;3.90;;;22.80;99.90;;;;;;4916205;29;20063;-78
2021/08/05 06:44:51;;;;;;;17.92;4.10;;;22.90;99.90;;;;;;4917212;29;20040;-75
2021/08/05 06:47:17;;;;;;;9.48;4.10;;;23.10;99.90;;;;;;4907312;29;20045;-76
2021/08/05 06:49:43;;;;;;;8.27;4.10;;;23.60;99.90;;;;;;4899785;29;20414;-77
2021/08/05 06:52:09;;;;;;;15.00;3.83;;;24.90;99.90;;;;;;4900059;29;20025;-78
2021/08/05 06:54:35;;;;;;;11.77;3.13;;;26.70;99.90;;;;;;4910711;29;20531;-78
2021/08/05 06:57:00;;;;;;;11.57;3.28;;;28.20;99.90;;;;;;4900365;29;20107;-78
2021/08/05 06:59:26;;;;;;;10.55;2.90;;;29.20;99.90;;;;;;4899560;29;20097;-79
2021/08/05 07:01:52;;;;;;;10.48;3.15;;;30.30;99.90;;;;;;4900666;29;20139;-77
2021/08/05 07:04:17;;;;;;;7.15;3.40;;;31.10;99.90;;;;;;4882343;29;20036;-79
2021/08/05 07:06:43;;;;;;;9.68;3.75;;;30.40;99.90;;;;;;4897958;29;20033;-77
2021/08/05 07:09:09;;;;;;;8.95;3.22;;;29.20;99.90;;;;;;4899483;29;20040;-78
2021/08/05 07:11:34;;;;;;;8.57;3.05;;;27.80;99.90;;;;;;4899505;29;20040;-79
2021/08/05 07:14:00;;;;;;;10.73;3.35;;;26.80;99.90;;;;;;4897652;29;20116;-79
2021/08/05 07:16:26;;;;;;;14.05;3.90;;;26.90;99.90;;;;;;4899153;29;20036;-78
2021/08/05 07:18:51;;;;;;;9.70;3.08;;;27.10;99.90;;;;;;4882210;29;20088;-79
2021/08/05 07:21:17;;;;;;;10.43;2.88;;;27.90;99.90;;;;;;4898944;29;20036;-79
2021/08/05 07:23:43;;;;;;;8.40;3.40;;;29.40;99.90;;;;;;4903135;29;20386;-79
2021/08/05 07:26:10;;;;;;;7.82;3.38;;;29.50;99.90;;;;;;4899122;29;20466;-78
2021/08/05 07:28:36;;;;;;;10.23;2.58;;;28.40;99.90;;;;;;4899186;29;20482;-79
2021/08/05 07:31:02;;;;;;;7.97;3.55;;;27.10;99.90;;;;;;4898733;29;20044;-79
2021/08/05 07:33:27;;;;;;;6.60;3.15;;;26.20;99.90;;;;;;4899224;29;20036;-79
2021/08/05 07:35:53;;;;;;;9.38;3.67;;;25.70;99.90;;;;;;4898676;29;20039;-80
2021/08/05 07:38:19;;;;;;;8.95;3.80;;;25.50;99.90;;;;;;4899120;29;20021;-77
2021/08/05 07:40:45;;;;;;;9.35;4.38;;;25.10;99.90;;;;;;4902764;29;20048;-78
2021/08/05 07:43:11;;;;;;;7.68;3.25;;;24.80;99.90;;;;;;4907168;29;20116;-78
2021/08/05 07:45:36;;;;;;;9.05;3.58;;;24.50;99.90;;;;;;4897631;29;20085;-77
2021/08/05 07:48:02;;;;;;;9.50;4.35;;;24.40;99.90;;;;;;4897885;29;20029;-78
2021/08/05 07:50:28;;;;;;;10.02;4.55;;;24.30;99.90;;;;;;4899069;29;20602;-78
2021/08/05 07:52:53;;;;;;;18.63;4.68;;;24.30;99.90;;;;;;4898365;29;20505;-79
2021/08/05 07:55:19;;;;;;;18.63;4.32;;;24.40;99.90;;;;;;4910587;29;20037;-77
2021/08/05 07:57:45;;;;;;;12.65;4.50;;;24.40;99.90;;;;;;4898721;29;20089;-78
2021/08/05 08:00:12;;;;;;;15.13;4.15;;;24.50;99.90;;;;;;4881450;29;20032;-78
2021/08/05 08:02:37;;;;;;;11.70;4.13;;;24.50;99.90;;;;;;4902363;29;20063;-78
2021/08/05 08:05:04;;;;;;;35.00;5.40;;;24.40;99.90;;;;;;4906651;29;20020;-79
2021/08/05 08:07:36;;;;;;;12.93;4.43;;;24.30;99.90;;;;;;4897726;29;20123;-78
2021/08/05 08:10:02;;;;;;;12.07;5.28;;;24.20;99.90;;;;;;4896594;29;20112;-81
2021/08/05 08:12:28;;;;;;;12.93;5.38;;;24.20;99.90;;;;;;4899661;29;20537;-81
2021/08/05 08:14:54;;;;;;;12.85;5.38;;;24.10;99.90;;;;;;4911580;29;20040;-79
2021/08/05 08:17:20;;;;;;;16.15;5.20;;;24.00;99.90;;;;;;4897682;29;20041;-78
2021/08/05 08:19:45;;;;;;;11.00;4.47;;;23.90;99.90;;;;;;4911986;29;20123;-76
2021/08/05 08:22:11;;;;;;;15.32;4.20;;;23.80;99.90;;;;;;4908989;29;20036;-77
2021/08/05 08:24:37;;;;;;;23.33;4.47;;;23.70;99.90;;;;;;4894654;29;20108;-76
2021/08/05 08:27:03;;;;;;;17.90;3.95;;;23.70;99.90;;;;;;4896122;29;20043;-78
2021/08/05 08:29:29;;;;;;;18.25;4.75;;;23.50;99.90;;;;;;4896325;29;20035;-77
2021/08/05 08:31:55;;;;;;;25.13;5.43;;;23.40;99.90;;;;;;4899037;29;20489;-79
2021/08/05 08:34:20;;;;;;;17.30;5.43;;;23.30;99.90;;;;;;4897091;29;20123;-80
2021/08/05 08:36:46;;;;;;;20.80;6.07;;;23.00;99.90;;;;;;4897380;29;20037;-80
2021/08/05 08:39:12;;;;;;;19.63;5.90;;;22.70;99.90;;;;;;4900141;29;20045;-77
2021/08/05 08:41:40;;;;;;;9.60;4.95;;;22.30;99.90;;;;;;4895823;29;20611;-82
2021/08/05 08:44:06;;;;;;;26.67;6.72;;;21.90;99.90;;;;;;4901349;29;20028;-83
2021/08/05 08:46:36;;;;;;;12.70;7.18;;;21.60;99.90;;;;;;4905552;29;20044;-82
2021/08/05 08:49:03;;;;;;;16.83;6.47;;;21.30;99.90;;;;;;4897021;29;20079;-82
2021/08/05 08:51:33;;;;;;;24.92;7.47;;;21.20;99.90;;;;;;4896646;29;20036;-76
2021/08/05 08:54:02;;;;;;;19.00;7.38;;;21.10;99.90;;;;;;4897286;29;20044;-82
2021/08/05 08:56:33;;;;;;;15.95;6.63;;;21.00;99.90;;;;;;4901423;29;20102;-82
2021/08/05 08:58:59;;;;;;;22.00;7.10;;;21.10;99.90;;;;;;4903783;29;20160;-80
2021/08/05 09:01:25;;;;;;;12.73;4.70;;;21.20;99.90;;;;;;4903686;29;20080;-77
2021/08/05 09:03:51;;;;;;;12.77;4.85;;;21.30;99.90;;;;;;4899080;29;20102;-80
2021/08/05 09:06:17;;;;;;;12.82;5.68;;;21.30;99.90;;;;;;4898137;29;20457;-76
2021/08/05 09:08:42;;;;;;;16.73;6.10;;;21.40;99.90;;;;;;4910418;29;20111;-80
2021/08/05 09:11:08;;;;;;;9.65;5.10;;;21.60;99.90;;;;;;4898681;29;20031;-81
2021/08/05 09:13:35;;;;;;;13.73;5.40;;;21.90;99.90;;;;;;4899362;29;20036;-81
2021/08/05 09:16:00;;;;;;;13.70;5.78;;;22.60;99.90;;;;;;4898310;29;20389;-81
2021/08/05 09:18:35;;;;;;;12.40;4.68;;;23.00;99.90;;;;;;4897419;29;20115;-79
2021/08/05 09:21:27;;;;;;;14.95;5.28;;;23.40;99.90;;;;;;4902859;29;20100;-81
2021/08/05 09:24:01;;;;;;;12.13;4.07;;;23.70;99.90;;;;;;4907344;29;20457;-81
2021/08/05 09:26:41;;;;;;;9.68;3.80;;;23.80;99.90;;;;;;4893023;29;20048;-76
2021/08/05 09:29:08;;;;;;;11.55;4.15;;;24.00;99.90;;;;;;4907203;29;20029;-79
2021/08/05 09:31:36;;;;;;;8.10;3.67;;;24.20;99.90;;;;;;4909603;29;20397;-80
2021/08/05 09:34:07;;;;;;;13.77;4.97;;;24.40;99.90;;;;;;4908548;29;20050;-78
2021/08/05 09:36:33;;;;;;;7.18;4.00;;;24.70;99.90;;;;;;4908098;29;20028;-81
2021/08/05 09:39:00;;;;;;;10.38;4.38;;;24.80;99.90;;;;;;4910412;29;20068;-78
2021/08/05 09:41:26;;;;;;;7.95;4.20;;;24.80;99.90;;;;;;4906537;29;20418;-81
2021/08/05 09:44:01;;;;;;;12.88;3.78;;;24.90;99.90;;;;;;4911320;29;20028;-78
2021/08/05 09:46:31;;;;;;;5.50;4.13;;;25.00;99.90;;;;;;4904787;29;20569;-75
2021/08/05 09:48:57;;;;;;;13.20;5.13;;;25.00;99.90;;;;;;4896669;29;20048;-80
2021/08/05 09:51:23;;;;;;;9.93;4.50;;;25.10;99.90;;;;;;4896032;29;20032;-79
2021/08/05 09:54:07;;;;;;;5.18;3.75;;;25.10;99.90;;;;;;4895778;29;20430;-77
2021/08/05 09:56:36;;;;;;;10.52;4.65;;;24.90;99.90;;;;;;4895179;29;20088;-79
2021/08/05 09:59:13;;;;;;;12.77;4.50;;;24.80;99.90;;;;;;4877795;29;20060;-80
2021/08/05 10:02:05;;;;;;;10.93;4.57;;;24.60;99.90;;;;;;4896329;29;20132;-77
2021/08/05 10:04:33;;;;;;;12.60;4.70;;;24.40;99.90;;;;;;4892113;29;20039;-80
2021/08/05 10:07:06;;;;;;;11.57;4.30;;;24.30;99.90;;;;;;4896475;29;20112;-80
2021/08/05 10:09:34;;;;;;;12.10;4.10;;;24.20;99.90;;;;;;4879513;29;20120;-81
2021/08/05 10:12:13;;;;;;;12.00;4.13;;;24.20;99.90;;;;;;4896487;29;20389;-78
2021/08/05 10:14:39;;;;;;;8.82;4.43;;;24.50;99.90;;;;;;4883810;29;20051;-80
2021/08/05 10:17:06;;;;;;;9.50;3.60;;;24.80;99.90;;;;;;4895871;29;20029;-77
2021/08/05 10:19:40;;;;;;;17.92;4.85;;;25.00;99.90;;;;;;4896263;29;20409;-80
2021/08/05 10:22:08;;;;;;;16.13;4.40;;;25.00;99.90;;;;;;4895096;29;20118;-81
2021/08/05 10:24:44;;;;;;;12.23;4.05;;;25.10;99.90;;;;;;4905893;29;20025;-77
2021/08/05 10:27:12;;;;;;;10.68;3.78;;;25.40;99.90;;;;;;4902485;29;20064;-78
2021/08/05 10:29:39;;;;;;;10.75;3.17;;;25.60;99.90;;;;;;4901265;29;20098;-76
2021/08/05 10:32:07;;;;;;;12.05;3.45;;;25.70;99.90;;;;;;4894573;29;20419;-79
2021/08/05 10:34:34;;;;;;;3.35;2.80;;;25.60;99.90;;;;;;4894805;29;20375;-79
2021/08/05 10:37:02;;;;;;;5.03;2.30;;;25.50;99.90;;;;;;4899093;29;20045;-83
2021/08/05 10:39:29;;;;;;;3.90;2.45;;;25.50;99.90;;;;;;4896150;29;20041;-81
2021/08/05 10:41:59;;;;;;;5.55;2.15;;;25.60;99.90;;;;;;4905543;29;20048;-83
2021/08/05 10:44:27;;;;;;;6.20;2.83;;;25.80;99.90;;;;;;4901582;29;20174;-82
2021/08/05 10:46:56;;;;;;;3.97;2.28;;;26.20;99.90;;;;;;4899461;29;20461;-80
2021/08/05 10:49:23;;;;;;;3.30;2.13;;;26.60;99.90;;;;;;4898371;29;20107;-78
2021/08/05 10:51:50;;;;;;;6.00;2.60;;;27.00;99.90;;;;;;4903460;29;20114;-81
2021/08/05 10:54:52;;;;;;;5.68;2.10;;;27.20;99.90;;;;;;4905212;29;20029;-78
2021/08/05 10:57:19;;;;;;;;;;;27.40;99.90;;;;;;4895630;29;20036;-83
2021/08/05 11:00:03;;;;;;;13.48;3.35;;;27.60;99.90;;;;;;4907217;29;19966;-80
2021/08/05 11:02:54;;;;;;;3.25;1.60;;;27.70;99.90;;;;;;4906382;29;20075;-75
2021/08/05 11:05:23;;;;;;;13.25;2.15;;;27.90;99.90;;;;;;4899059;29;20035;-76
2021/08/05 11:07:53;;;;;;;9.07;2.25;;;27.90;99.90;;;;;;4899068;29;20036;-82
2021/08/05 11:10:24;;;;;;;7.00;2.38;;;27.80;99.90;;;;;;4903315;29;20071;-81
2021/08/05 11:12:51;;;;;;;5.05;2.00;;;27.60;99.90;;;;;;4912115;29;20097;-78
2021/08/05 11:15:20;;;;;;;2.42;1.63;;;27.30;99.90;;;;;;4902207;29;20044;-78
2021/08/05 11:18:13;;;;;;;5.72;1.70;;;27.00;99.90;;;;;;4908085;29;20088;-76
2021/08/05 11:20:43;;;;;;;3.50;1.65;;;26.80;99.90;;;;;;4888616;29;20052;-81
2021/08/05 11:23:28;;;;;;;4.53;1.98;;;26.60;99.90;;;;;;4901637;29;20135;-83
2021/08/05 11:25:56;;;;;;;8.48;2.03;;;26.50;99.90;;;;;;4893679;29;20032;-85
2021/08/05 11:28:30;;;;;;;7.03;1.80;;;26.50;99.90;;;;;;4910099;29;20032;-83
2021/08/05 11:31:10;;;;;;;5.60;2.03;;;26.40;99.90;;;;;;4906949;29;20484;-77
2021/08/05 11:33:40;;;;;;;2.25;1.48;;;26.30;99.90;;;;;;4905181;29;20032;-81
2021/08/05 11:36:22;;;;;;;1.77;1.40;;;26.20;99.90;;;;;;4907266;29;20028;-77
2021/08/05 11:39:07;;;;;;;;;;;26.10;99.90;;;;;;4897234;29;20277;-81
2021/08/05 11:41:47;;;;;;;7.85;2.28;;;26.20;99.90;;;;;;4899968;29;19938;-78
2021/08/05 11:44:16;;;;;;;3.37;2.33;;;25.90;99.90;;;;;;4897317;29;20064;-79
2021/08/05 11:46:42;;;;;;;3.00;1.95;;;25.80;99.90;;;;;;4900530;29;20040;-79
2021/08/05 11:49:30;;;;;;;2.20;1.65;;;25.90;99.90;;;;;;4898332;29;20489;-78
2021/08/05 11:51:57;;;;;;;2.53;1.60;;;25.80;99.90;;;;;;4897389;29;20060;-79
2021/08/05 11:54:23;;;;;;;2.55;1.80;;;25.80;99.90;;;;;;4897937;29;20029;-78
2021/08/05 11:57:00;;;;;;;5.22;1.85;;;25.80;99.90;;;;;;4898431;29;20068;-80
2021/08/05 11:59:37;;;;;;;4.95;2.00;;;25.90;99.90;;;;;;4881747;29;20064;-80
2021/08/05 12:02:14;;;;;;;4.35;1.60;;;25.90;99.90;;;;;;4909089;29;20051;-81
2021/08/05 12:04:40;;;;;;;2.15;1.77;;;25.80;99.90;;;;;;4911303;29;20028;-80
2021/08/05 12:07:18;;;;;;;2.58;1.60;;;25.70;99.90;;;;;;4897225;29;20660;-77
2021/08/05 12:09:49;;;;;;;4.55;1.23;;;25.60;99.90;;;;;;4897643;29;20071;-81
2021/08/05 12:12:15;;;;;;;4.05;1.30;;;25.60;99.90;;;;;;4895995;29;20048;-83
2021/08/05 12:14:58;;;;;;;2.90;1.02;;;25.60;99.90;;;;;;4898140;29;20374;-81
2021/08/05 12:17:35;;;;;;;6.18;1.13;;;25.50;99.90;;;;;;4895941;29;20037;-77
2021/08/05 12:20:06;;;;;;;2.88;0.98;;;25.50;99.90;;;;;;4896701;29;20512;-79
2021/08/05 12:22:40;;;;;;;1.30;1.20;;;25.50;99.90;;;;;;4898048;29;20064;-78
2021/08/05 12:25:11;;;;;;;3.20;1.60;;;25.40;99.90;;;;;;4895324;29;20108;-78
2021/08/05 12:27:37;;;;;;;5.03;1.50;;;25.40;99.90;;;;;;4881360;29;20375;-77
2021/08/05 12:30:09;;;;;;;3.00;1.13;;;25.30;99.90;;;;;;4894118;29;20036;-78
2021/08/05 12:32:36;;;;;;;3.40;1.10;;;25.30;99.90;;;;;;4894948;29;20032;-78
2021/08/05 12:35:10;;;;;;;3.95;1.33;;;25.40;99.90;;;;;;4896110;29;20422;-78
2021/08/05 12:37:36;;;;;;;7.70;1.10;;;25.40;99.90;;;;;;4893596;29;20409;-76
2021/08/05 12:40:09;;;;;;;2.08;1.00;;;25.60;99.90;;;;;;4892274;29;20024;-77
2021/08/05 12:42:35;;;;;;;1.63;1.00;;;25.60;99.90;;;;;;4894559;29;20055;-78
2021/08/05 12:45:01;;;;;;;1.75;1.15;;;25.70;99.90;;;;;;4895360;29;20061;-78
2021/08/05 12:47:27;;;;;;;2.97;1.08;;;25.70;99.90;;;;;;4878907;29;20043;-83
2021/08/05 12:49:52;;;;;;;1.45;0.95;;;25.80;99.90;;;;;;4871886;29;20048;-74